Impacts TAF Board
For situational awareness. Not to be used for flight planning purposes.
IDs:

KBOS - Boston/Logan Intl, MA, US

Issued at 1121 UTC 17 Dec 2018
Updated at 1234 UTC 17 Dec 2018
Potential Impact None Slight Moderate High
Time1154Z 17/13Z 17/14Z 17/15Z 17/16Z 17/17Z 17/18Z 17/19Z 17/20Z 17/21Z 17/22Z 17/23Z 18/00Z 18/01Z>>
Type OBS PRVL PRVL PRVL PRVL PRVL PRVL PRVL PRVL PRVL PRVL PRVL PRVL PRVL
VIS 9 >6 >6 >6 >6 >6 >6 >6 >6 >6 >6 >6 >6 >6
CIG 12 15 15 15 15 15 30 30 30 45 45 45 80 80
Cover OVC OVC OVC OVC OVC OVC BKN BKN BKN BKN BKN BKN BKN BKN
FltCat MVFR MVFR MVFR MVFR MVFR MVFR MVFR MVFR MVFR VFR VFR VFR VFR VFR
WX -SN -- -- -- -- -- -- -- -- -- -- -- -- --
WDir 340 330 330 330 330 330 310 310 310 300 300 300 310 310
WSpd 11 12 12 12 12 12 12 12 12 12 12 12 14 14
WGst -- 22 22 22 22 22 22 22 22 23 23 23 28 28
Raw TAF
KBOS 171121Z 1712/1818 34014KT 2SM -SNRA OVC006
  FM171300 33012G22KT P6SM OVC015
  FM171800 31012G22KT P6SM BKN030
  FM172100 30012G23KT P6SM BKN045
  FM180000 31014G28KT P6SM BKN080


Raw METAR
KBOS 171154Z 34011KT 9SM -SN SCT008 OVC012 02/01 A2965 RMK AO2 RAE36 SLP039 P0003 60004 70058 T00220006 10050 20022 56009
KBOS 171144Z 33011KT 6SM -SN BR SCT008 OVC015 02/01 A2965 RMK AO2 RAE36 CIG 008 E P0003 T00220006
KBOS 171054Z 34011G18KT 8SM -RASN BKN009 OVC014 02/01 A2966 RMK AO2 RAE07B25SNB35 SLP043 P0000 T00220006
KBOS 171028Z 34013KT 6SM -RA BR SCT006 BKN011 OVC020 02/01 A2966 RMK AO2 RAE07B25 P0000 T00220006
KBOS 170954Z 34012KT 4SM -RA BR SCT006 OVC009 02/01 A2966 RMK AO2 SLP044 P0000 T00220006
KBOS 170944Z 35013KT 3SM -RA BR BKN006 OVC011 02/01 A2966 RMK AO2 TWR VIS 4 P0000 T00220006

METAR Board
Radar Display
Forecast Discussion
For situational awareness. Not to be used for flight planning purposes.